sensor_id;sensor_type;location;lat;lon;timestamp;pressure;altitude;pressure_sealevel;temperature
76713;BMP280;65640;43.154;25.658;2023-06-05T00:01:55;101178.94;;;15.58
76713;BMP280;65640;43.154;25.658;2023-06-05T00:04:20;101180.47;;;15.59
76713;BMP280;65640;43.154;25.658;2023-06-05T00:06:46;101171.50;;;15.60
76713;BMP280;65640;43.154;25.658;2023-06-05T00:09:12;101175.50;;;15.57
76713;BMP280;65640;43.154;25.658;2023-06-05T00:11:39;101177.72;;;15.50
76713;BMP280;65640;43.154;25.658;2023-06-05T00:14:04;101177.22;;;15.30
76713;BMP280;65640;43.154;25.658;2023-06-05T00:16:30;101171.28;;;15.19
76713;BMP280;65640;43.154;25.658;2023-06-05T00:18:56;101175.78;;;15.18
76713;BMP280;65640;43.154;25.658;2023-06-05T00:21:21;101183.16;;;15.16
76713;BMP280;65640;43.154;25.658;2023-06-05T00:23:48;101187.31;;;15.23
76713;BMP280;65640;43.154;25.658;2023-06-05T00:26:13;101196.25;;;15.27
76713;BMP280;65640;43.154;25.658;2023-06-05T00:28:39;101190.97;;;15.27
76713;BMP280;65640;43.154;25.658;2023-06-05T00:31:04;101194.13;;;15.29
76713;BMP280;65640;43.154;25.658;2023-06-05T00:33:31;101190.47;;;15.25
76713;BMP280;65640;43.154;25.658;2023-06-05T00:35:56;101191.53;;;15.24
76713;BMP280;65640;43.154;25.658;2023-06-05T00:38:22;101182.78;;;15.28
76713;BMP280;65640;43.154;25.658;2023-06-05T00:40:47;101187.78;;;15.30
76713;BMP280;65640;43.154;25.658;2023-06-05T00:43:13;101184.63;;;15.28
76713;BMP280;65640;43.154;25.658;2023-06-05T00:45:38;101182.00;;;15.28
76713;BMP280;65640;43.154;25.658;2023-06-05T00:48:04;101178.56;;;15.27
76713;BMP280;65640;43.154;25.658;2023-06-05T00:50:31;101189.13;;;15.27
76713;BMP280;65640;43.154;25.658;2023-06-05T00:52:58;101194.44;;;15.22
76713;BMP280;65640;43.154;25.658;2023-06-05T00:55:24;101194.09;;;15.10
76713;BMP280;65640;43.154;25.658;2023-06-05T00:57:50;101195.53;;;14.97
76713;BMP280;65640;43.154;25.658;2023-06-05T01:00:16;101193.41;;;14.99
76713;BMP280;65640;43.154;25.658;2023-06-05T01:02:41;101198.63;;;15.04
76713;BMP280;65640;43.154;25.658;2023-06-05T01:05:08;101199.13;;;15.06
76713;BMP280;65640;43.154;25.658;2023-06-05T01:07:33;101200.19;;;15.05
76713;BMP280;65640;43.154;25.658;2023-06-05T01:10:04;101197.28;;;15.07
76713;BMP280;65640;43.154;25.658;2023-06-05T01:12:37;101194.94;;;15.05
76713;BMP280;65640;43.154;25.658;2023-06-05T01:15:06;101194.19;;;15.00
76713;BMP280;65640;43.154;25.658;2023-06-05T01:17:32;101191.28;;;15.01
76713;BMP280;65640;43.154;25.658;2023-06-05T01:19:59;101195.25;;;14.99
76713;BMP280;65640;43.154;25.658;2023-06-05T01:22:35;101193.94;;;14.96
76713;BMP280;65640;43.154;25.658;2023-06-05T01:25:04;101196.03;;;14.99
76713;BMP280;65640;43.154;25.658;2023-06-05T01:27:55;101196.63;;;14.91
76713;BMP280;65640;43.154;25.658;2023-06-05T01:30:30;101204.34;;;14.88
76713;BMP280;65640;43.154;25.658;2023-06-05T01:33:01;101203.03;;;14.85
76713;BMP280;65640;43.154;25.658;2023-06-05T01:35:30;101200.13;;;14.87
76713;BMP280;65640;43.154;25.658;2023-06-05T01:37:59;101200.94;;;14.87
76713;BMP280;65640;43.154;25.658;2023-06-05T01:40:29;101202.50;;;14.88
76713;BMP280;65640;43.154;25.658;2023-06-05T01:42:55;101204.06;;;14.89
76713;BMP280;65640;43.154;25.658;2023-06-05T01:45:22;101210.41;;;14.88
76713;BMP280;65640;43.154;25.658;2023-06-05T01:47:47;101208.09;;;14.82
76713;BMP280;65640;43.154;25.658;2023-06-05T01:50:14;101203.09;;;14.80
76713;BMP280;65640;43.154;25.658;2023-06-05T01:52:41;101204.44;;;14.78
76713;BMP280;65640;43.154;25.658;2023-06-05T01:55:09;101202.88;;;14.77
76713;BMP280;65640;43.154;25.658;2023-06-05T01:57:43;101208.47;;;14.70
76713;BMP280;65640;43.154;25.658;2023-06-05T02:00:09;101208.25;;;14.66
76713;BMP280;65640;43.154;25.658;2023-06-05T02:02:39;101213.72;;;14.70
76713;BMP280;65640;43.154;25.658;2023-06-05T02:05:08;101209.53;;;14.69
76713;BMP280;65640;43.154;25.658;2023-06-05T02:07:35;101207.41;;;14.71
76713;BMP280;65640;43.154;25.658;2023-06-05T02:10:04;101211.88;;;14.70
76713;BMP280;65640;43.154;25.658;2023-06-05T02:12:30;101220.84;;;14.69
76713;BMP280;65640;43.154;25.658;2023-06-05T02:14:56;101214.78;;;14.69
76713;BMP280;65640;43.154;25.658;2023-06-05T02:17:22;101212.47;;;14.67
76713;BMP280;65640;43.154;25.658;2023-06-05T02:19:50;101217.72;;;14.67
76713;BMP280;65640;43.154;25.658;2023-06-05T02:22:16;101213.72;;;14.70
76713;BMP280;65640;43.154;25.658;2023-06-05T02:24:41;101207.69;;;14.69
76713;BMP280;65640;43.154;25.658;2023-06-05T02:27:08;101214.78;;;14.69
76713;BMP280;65640;43.154;25.658;2023-06-05T02:29:36;101212.72;;;14.66
76713;BMP280;65640;43.154;25.658;2023-06-05T02:32:03;101214.91;;;14.59
76713;BMP280;65640;43.154;25.658;2023-06-05T02:34:28;101217.81;;;14.57
76713;BMP280;65640;43.154;25.658;2023-06-05T02:36:54;101214.38;;;14.57
76713;BMP280;65640;43.154;25.658;2023-06-05T02:39:20;101210.53;;;14.44
76713;BMP280;65640;43.154;25.658;2023-06-05T02:41:46;101217.09;;;14.47
76713;BMP280;65640;43.154;25.658;2023-06-05T02:44:11;101216.53;;;14.50
76713;BMP280;65640;43.154;25.658;2023-06-05T02:46:37;101209.16;;;14.52
76713;BMP280;65640;43.154;25.658;2023-06-05T02:49:02;101204.16;;;14.55
76713;BMP280;65640;43.154;25.658;2023-06-05T02:51:27;101210.97;;;14.56
76713;BMP280;65640;43.154;25.658;2023-06-05T02:53:53;101217.53;;;14.59
76713;BMP280;65640;43.154;25.658;2023-06-05T02:56:18;101215.97;;;14.58
76713;BMP280;65640;43.154;25.658;2023-06-05T02:58:44;101213.09;;;14.54
76713;BMP280;65640;43.154;25.658;2023-06-05T03:01:10;101214.91;;;14.59
76713;BMP280;65640;43.154;25.658;2023-06-05T03:03:36;101219.63;;;14.62
76713;BMP280;65640;43.154;25.658;2023-06-05T03:06:02;101228.84;;;14.64
76713;BMP280;65640;43.154;25.658;2023-06-05T03:08:35;101220.38;;;14.67
76713;BMP280;65640;43.154;25.658;2023-06-05T03:11:01;101220.06;;;14.69
76713;BMP280;65640;43.154;25.658;2023-06-05T03:13:27;101214.78;;;14.69
76713;BMP280;65640;43.154;25.658;2023-06-05T03:15:54;101212.16;;;14.69
76713;BMP280;65640;43.154;25.658;2023-06-05T03:18:22;101218.22;;;14.69
76713;BMP280;65640;43.154;25.658;2023-06-05T03:20:48;101219.75;;;14.75
76713;BMP280;65640;43.154;25.658;2023-06-05T03:23:15;101214.16;;;14.82
76713;BMP280;65640;43.154;25.658;2023-06-05T03:25:41;101220.97;;;14.88
76713;BMP280;65640;43.154;25.658;2023-06-05T03:28:07;101223.00;;;14.91
76713;BMP280;65640;43.154;25.658;2023-06-05T03:30:32;101217.41;;;14.98
76713;BMP280;65640;43.154;25.658;2023-06-05T03:32:58;101219.22;;;15.02
76713;BMP280;65640;43.154;25.658;2023-06-05T03:35:23;101218.44;;;15.02
76713;BMP280;65640;43.154;25.658;2023-06-05T03:37:48;101217.59;;;15.06
76713;BMP280;65640;43.154;25.658;2023-06-05T03:40:14;101220.94;;;15.12
76713;BMP280;65640;43.154;25.658;2023-06-05T03:42:39;101220.03;;;15.22
76713;BMP280;65640;43.154;25.658;2023-06-05T03:45:05;101211.00;;;15.28
76713;BMP280;65640;43.154;25.658;2023-06-05T03:47:31;101221.28;;;15.29
76713;BMP280;65640;43.154;25.658;2023-06-05T03:49:59;101222.00;;;15.35
76713;BMP280;65640;43.154;25.658;2023-06-05T03:52:25;101217.72;;;15.39
76713;BMP280;65640;43.154;25.658;2023-06-05T03:54:51;101221.69;;;15.36
76713;BMP280;65640;43.154;25.658;2023-06-05T03:57:21;101219.84;;;15.37
76713;BMP280;65640;43.154;25.658;2023-06-05T03:59:46;101215.88;;;15.39
76713;BMP280;65640;43.154;25.658;2023-06-05T04:02:14;101214.97;;;15.49
76713;BMP280;65640;43.154;25.658;2023-06-05T04:04:40;101220.47;;;15.52
76713;BMP280;65640;43.154;25.658;2023-06-05T04:07:05;101221.19;;;15.58
76713;BMP280;65640;43.154;25.658;2023-06-05T04:09:31;101229.44;;;15.70
76713;BMP280;65640;43.154;25.658;2023-06-05T04:11:57;101217.38;;;15.83
76713;BMP280;65640;43.154;25.658;2023-06-05T04:14:23;101221.59;;;15.84
76713;BMP280;65640;43.154;25.658;2023-06-05T04:16:48;101223.09;;;15.90
76713;BMP280;65640;43.154;25.658;2023-06-05T04:19:14;101223.25;;;15.98
76713;BMP280;65640;43.154;25.658;2023-06-05T04:21:40;101208.28;;;16.07
76713;BMP280;65640;43.154;25.658;2023-06-05T04:24:07;101209.31;;;16.12
76713;BMP280;65640;43.154;25.658;2023-06-05T04:26:35;101215.66;;;16.10
76713;BMP280;65640;43.154;25.658;2023-06-05T04:29:02;101220.34;;;16.14
76713;BMP280;65640;43.154;25.658;2023-06-05T04:31:31;101213.13;;;16.19
76713;BMP280;65640;43.154;25.658;2023-06-05T04:33:57;101213.50;;;16.13
76713;BMP280;65640;43.154;25.658;2023-06-05T04:36:25;101208.72;;;16.15
76713;BMP280;65640;43.154;25.658;2023-06-05T04:38:50;101217.94;;;16.17
76713;BMP280;65640;43.154;25.658;2023-06-05T04:41:16;101219.88;;;16.25
76713;BMP280;65640;43.154;25.658;2023-06-05T04:43:41;101216.28;;;16.35
76713;BMP280;65640;43.154;25.658;2023-06-05T04:46:07;101211.84;;;16.49
76713;BMP280;65640;43.154;25.658;2023-06-05T04:48:33;101211.25;;;16.52
76713;BMP280;65640;43.154;25.658;2023-06-05T04:50:59;101218.97;;;16.48
76713;BMP280;65640;43.154;25.658;2023-06-05T04:53:25;101220.28;;;16.65
76713;BMP280;65640;43.154;25.658;2023-06-05T04:55:53;101216.16;;;16.72
76713;BMP280;65640;43.154;25.658;2023-06-05T04:58:19;101211.75;;;16.81
76713;BMP280;65640;43.154;25.658;2023-06-05T05:00:44;101207.53;;;16.80
76713;BMP280;65640;43.154;25.658;2023-06-05T05:03:10;101208.03;;;16.96
76713;BMP280;65640;43.154;25.658;2023-06-05T05:05:39;101208.44;;;17.03
76713;BMP280;65640;43.154;25.658;2023-06-05T05:08:05;101208.81;;;16.96
76713;BMP280;65640;43.154;25.658;2023-06-05T05:10:31;101213.63;;;17.08
76713;BMP280;65640;43.154;25.658;2023-06-05T05:12:56;101209.91;;;17.09
76713;BMP280;65640;43.154;25.658;2023-06-05T05:15:22;101212.84;;;17.08
76713;BMP280;65640;43.154;25.658;2023-06-05T05:17:48;101218.88;;;17.22
76713;BMP280;65640;43.154;25.658;2023-06-05T05:20:14;101215.06;;;17.28
76713;BMP280;65640;43.154;25.658;2023-06-05T05:22:39;101212.75;;;17.13
76713;BMP280;65640;43.154;25.658;2023-06-05T05:25:05;101213.00;;;17.25
76713;BMP280;65640;43.154;25.658;2023-06-05T05:27:31;101217.88;;;17.45
76713;BMP280;65640;43.154;25.658;2023-06-05T05:29:56;101215.59;;;17.52
76713;BMP280;65640;43.154;25.658;2023-06-05T05:32:22;101203.31;;;17.56
76713;BMP280;65640;43.154;25.658;2023-06-05T05:34:47;101200.19;;;17.76
76713;BMP280;65640;43.154;25.658;2023-06-05T05:37:12;101207.97;;;17.95
76713;BMP280;65640;43.154;25.658;2023-06-05T05:39:39;101202.38;;;17.96
76713;BMP280;65640;43.154;25.658;2023-06-05T05:42:04;101213.28;;;18.04
76713;BMP280;65640;43.154;25.658;2023-06-05T05:44:30;101211.50;;;18.43
76713;BMP280;65640;43.154;25.658;2023-06-05T05:46:55;101198.69;;;18.93
76713;BMP280;65640;43.154;25.658;2023-06-05T05:49:21;101202.34;;;19.49
76713;BMP280;65640;43.154;25.658;2023-06-05T05:51:46;101206.84;;;19.74
76713;BMP280;65640;43.154;25.658;2023-06-05T05:54:11;101204.19;;;19.66
76713;BMP280;65640;43.154;25.658;2023-06-05T05:56:37;101202.16;;;19.80
76713;BMP280;65640;43.154;25.658;2023-06-05T05:59:05;101191.94;;;19.90
76713;BMP280;65640;43.154;25.658;2023-06-05T06:01:31;101188.63;;;19.93
76713;BMP280;65640;43.154;25.658;2023-06-05T06:03:57;101193.22;;;19.84
76713;BMP280;65640;43.154;25.658;2023-06-05T06:06:22;101188.97;;;19.83
76713;BMP280;65640;43.154;25.658;2023-06-05T06:08:47;101179.34;;;20.17
76713;BMP280;65640;43.154;25.658;2023-06-05T06:11:13;101172.84;;;20.35
76713;BMP280;65640;43.154;25.658;2023-06-05T06:13:38;101178.06;;;20.52
76713;BMP280;65640;43.154;25.658;2023-06-05T06:16:05;101179.16;;;20.51
76713;BMP280;65640;43.154;25.658;2023-06-05T06:18:30;101171.53;;;20.50
76713;BMP280;65640;43.154;25.658;2023-06-05T06:20:56;101168.78;;;20.58
76713;BMP280;65640;43.154;25.658;2023-06-05T06:23:21;101179.09;;;20.68
76713;BMP280;65640;43.154;25.658;2023-06-05T06:25:47;101183.16;;;21.07
76713;BMP280;65640;43.154;25.658;2023-06-05T06:28:12;101185.31;;;21.47
76713;BMP280;65640;43.154;25.658;2023-06-05T06:30:38;101177.88;;;21.40
76713;BMP280;65640;43.154;25.658;2023-06-05T06:33:03;101182.31;;;21.36
76713;BMP280;65640;43.154;25.658;2023-06-05T06:35:29;101180.94;;;21.63
76713;BMP280;65640;43.154;25.658;2023-06-05T06:37:57;101181.72;;;21.87
76713;BMP280;65640;43.154;25.658;2023-06-05T06:40:23;101173.31;;;21.85
76713;BMP280;65640;43.154;25.658;2023-06-05T06:42:49;101163.31;;;22.07
76713;BMP280;65640;43.154;25.658;2023-06-05T06:45:16;101161.84;;;22.33
76713;BMP280;65640;43.154;25.658;2023-06-05T06:47:42;101159.94;;;22.46
76713;BMP280;65640;43.154;25.658;2023-06-05T06:50:08;101161.97;;;22.13
76713;BMP280;65640;43.154;25.658;2023-06-05T06:52:34;101160.63;;;22.43
76713;BMP280;65640;43.154;25.658;2023-06-05T06:55:00;101154.22;;;22.60
76713;BMP280;65640;43.154;25.658;2023-06-05T06:57:25;101151.91;;;22.86
76713;BMP280;65640;43.154;25.658;2023-06-05T06:59:51;101154.66;;;22.74
76713;BMP280;65640;43.154;25.658;2023-06-05T07:02:20;101153.75;;;22.82
76713;BMP280;65640;43.154;25.658;2023-06-05T07:04:46;101155.63;;;22.81
76713;BMP280;65640;43.154;25.658;2023-06-05T07:07:14;101160.78;;;22.74
76713;BMP280;65640;43.154;25.658;2023-06-05T07:09:41;101160.44;;;23.04
76713;BMP280;65640;43.154;25.658;2023-06-05T07:12:10;101160.50;;;22.79
76713;BMP280;65640;43.154;25.658;2023-06-05T07:14:37;101159.91;;;22.70
76713;BMP280;65640;43.154;25.658;2023-06-05T07:17:02;101158.34;;;22.69
76713;BMP280;65640;43.154;25.658;2023-06-05T07:19:29;101162.28;;;22.87
76713;BMP280;65640;43.154;25.658;2023-06-05T07:21:55;101164.25;;;22.90
76713;BMP280;65640;43.154;25.658;2023-06-05T07:24:22;101164.47;;;22.97
76713;BMP280;65640;43.154;25.658;2023-06-05T07:26:55;101169.28;;;23.35
76713;BMP280;65640;43.154;25.658;2023-06-05T07:29:24;101158.41;;;23.28
76713;BMP280;65640;43.154;25.658;2023-06-05T07:31:50;101152.25;;;23.40
76713;BMP280;65640;43.154;25.658;2023-06-05T07:34:20;101151.63;;;23.46
76713;BMP280;65640;43.154;25.658;2023-06-05T07:36:47;101157.41;;;23.48
76713;BMP280;65640;43.154;25.658;2023-06-05T07:39:16;101162.16;;;23.55
76713;BMP280;65640;43.154;25.658;2023-06-05T07:41:42;101155.75;;;23.75
76713;BMP280;65640;43.154;25.658;2023-06-05T07:44:14;101164.09;;;23.89
76713;BMP280;65640;43.154;25.658;2023-06-05T07:46:40;101158.00;;;23.73
76713;BMP280;65640;43.154;25.658;2023-06-05T07:49:06;101156.06;;;23.89
76713;BMP280;65640;43.154;25.658;2023-06-05T07:51:32;101165.19;;;24.39
76713;BMP280;65640;43.154;25.658;2023-06-05T07:54:06;101150.88;;;24.66
76713;BMP280;65640;43.154;25.658;2023-06-05T07:56:31;101144.94;;;24.76
76713;BMP280;65640;43.154;25.658;2023-06-05T07:58:58;101152.53;;;24.74
76713;BMP280;65640;43.154;25.658;2023-06-05T08:01:24;101144.56;;;24.97
76713;BMP280;65640;43.154;25.658;2023-06-05T08:03:51;101136.94;;;25.22
76713;BMP280;65640;43.154;25.658;2023-06-05T08:06:16;101138.31;;;25.35
76713;BMP280;65640;43.154;25.658;2023-06-05T08:08:42;101135.19;;;25.33
76713;BMP280;65640;43.154;25.658;2023-06-05T08:11:10;101128.81;;;25.18
76713;BMP280;65640;43.154;25.658;2023-06-05T08:13:39;101130.44;;;25.23
76713;BMP280;65640;43.154;25.658;2023-06-05T08:16:05;101125.59;;;25.32
76713;BMP280;65640;43.154;25.658;2023-06-05T08:18:30;101123.34;;;25.34
76713;BMP280;65640;43.154;25.658;2023-06-05T08:20:56;101125.81;;;25.72
76713;BMP280;65640;43.154;25.658;2023-06-05T08:23:21;101122.97;;;25.84
76713;BMP280;65640;43.154;25.658;2023-06-05T08:25:47;101129.06;;;25.81
76713;BMP280;65640;43.154;25.658;2023-06-05T08:28:16;101121.44;;;25.34
76713;BMP280;65640;43.154;25.658;2023-06-05T08:30:42;101119.56;;;25.61
76713;BMP280;65640;43.154;25.658;2023-06-05T08:33:07;101116.28;;;26.01
76713;BMP280;65640;43.154;25.658;2023-06-05T08:35:33;101111.09;;;26.18
76713;BMP280;65640;43.154;25.658;2023-06-05T08:37:58;101109.34;;;26.29
76713;BMP280;65640;43.154;25.658;2023-06-05T08:40:27;101109.75;;;26.31
76713;BMP280;65640;43.154;25.658;2023-06-05T08:42:53;101107.13;;;26.39
76713;BMP280;65640;43.154;25.658;2023-06-05T08:45:19;101103.13;;;26.59
76713;BMP280;65640;43.154;25.658;2023-06-05T08:47:50;101099.31;;;26.60
76713;BMP280;65640;43.154;25.658;2023-06-05T08:50:16;101096.75;;;26.74
76713;BMP280;65640;43.154;25.658;2023-06-05T08:52:42;101102.19;;;26.81
76713;BMP280;65640;43.154;25.658;2023-06-05T08:55:08;101095.41;;;26.94
76713;BMP280;65640;43.154;25.658;2023-06-05T08:57:37;101098.63;;;26.70
76713;BMP280;65640;43.154;25.658;2023-06-05T09:00:05;101106.28;;;26.68
76713;BMP280;65640;43.154;25.658;2023-06-05T09:02:37;101101.78;;;26.82
76713;BMP280;65640;43.154;25.658;2023-06-05T09:05:03;101098.91;;;27.05
76713;BMP280;65640;43.154;25.658;2023-06-05T09:07:30;101105.84;;;27.06
76713;BMP280;65640;43.154;25.658;2023-06-05T09:09:56;101092.00;;;27.04
76713;BMP280;65640;43.154;25.658;2023-06-05T09:12:22;101091.91;;;26.90
76713;BMP280;65640;43.154;25.658;2023-06-05T09:14:49;101086.09;;;26.84
76713;BMP280;65640;43.154;25.658;2023-06-05T09:17:15;101099.28;;;27.00
76713;BMP280;65640;43.154;25.658;2023-06-05T09:19:42;101087.09;;;27.13
76713;BMP280;65640;43.154;25.658;2023-06-05T09:22:12;101095.00;;;26.92
76713;BMP280;65640;43.154;25.658;2023-06-05T09:24:39;101094.31;;;27.02
76713;BMP280;65640;43.154;25.658;2023-06-05T09:27:16;101097.38;;;27.01
76713;BMP280;65640;43.154;25.658;2023-06-05T09:29:42;101094.31;;;27.02
76713;BMP280;65640;43.154;25.658;2023-06-05T09:32:18;101092.84;;;27.12
76713;BMP280;65640;43.154;25.658;2023-06-05T09:34:54;101097.03;;;27.09
76713;BMP280;65640;43.154;25.658;2023-06-05T09:37:33;101080.31;;;27.33
76713;BMP280;65640;43.154;25.658;2023-06-05T09:39:59;101079.22;;;27.48
76713;BMP280;65640;43.154;25.658;2023-06-05T09:42:31;101075.13;;;27.72
76713;BMP280;65640;43.154;25.658;2023-06-05T09:44:59;101065.50;;;27.71
76713;BMP280;65640;43.154;25.658;2023-06-05T09:47:25;101063.28;;;27.84
76713;BMP280;65640;43.154;25.658;2023-06-05T09:49:50;101067.06;;;27.72
76713;BMP280;65640;43.154;25.658;2023-06-05T09:52:16;101067.44;;;27.64
76713;BMP280;65640;43.154;25.658;2023-06-05T09:54:45;101059.69;;;27.59
76713;BMP280;65640;43.154;25.658;2023-06-05T09:57:12;101053.25;;;27.81
76713;BMP280;65640;43.154;25.658;2023-06-05T09:59:54;101057.19;;;28.01
76713;BMP280;65640;43.154;25.658;2023-06-05T10:02:23;101056.06;;;28.13
76713;BMP280;65640;43.154;25.658;2023-06-05T10:04:56;101057.25;;;28.36
76713;BMP280;65640;43.154;25.658;2023-06-05T10:07:23;101063.06;;;28.59
76713;BMP280;65640;43.154;25.658;2023-06-05T10:09:49;101055.31;;;28.83
76713;BMP280;65640;43.154;25.658;2023-06-05T10:12:15;101056.47;;;28.96
76713;BMP280;65640;43.154;25.658;2023-06-05T10:14:42;101044.16;;;28.88
76713;BMP280;65640;43.154;25.658;2023-06-05T10:17:09;101049.56;;;28.63
76713;BMP280;65640;43.154;25.658;2023-06-05T10:19:36;101043.75;;;28.64
76713;BMP280;65640;43.154;25.658;2023-06-05T10:22:02;101041.81;;;28.08
76713;BMP280;65640;43.154;25.658;2023-06-05T10:24:34;101038.31;;;28.04
76713;BMP280;65640;43.154;25.658;2023-06-05T10:27:12;101032.53;;;27.99
76713;BMP280;65640;43.154;25.658;2023-06-05T10:30:05;101034.53;;;28.13
76713;BMP280;65640;43.154;25.658;2023-06-05T10:32:45;101034.88;;;28.04
76713;BMP280;65640;43.154;25.658;2023-06-05T10:40:48;101035.69;;;28.50
76713;BMP280;65640;43.154;25.658;2023-06-05T10:45:55;101028.00;;;28.59
76713;BMP280;65640;43.154;25.658;2023-06-05T10:48:20;101017.53;;;29.04
76713;BMP280;65640;43.154;25.658;2023-06-05T10:50:46;101019.03;;;29.19
76713;BMP280;65640;43.154;25.658;2023-06-05T10:53:44;101015.88;;;29.42
76713;BMP280;65640;43.154;25.658;2023-06-05T10:57:03;101014.72;;;29.39
76713;BMP280;65640;43.154;25.658;2023-06-05T10:59:24;101016.38;;;28.98
76713;BMP280;65640;43.154;25.658;2023-06-05T11:15:01;101003.69;;;28.95
76713;BMP280;65640;43.154;25.658;2023-06-05T11:19:57;101004.78;;;29.22
76713;BMP280;65640;43.154;25.658;2023-06-05T11:22:22;101007.38;;;29.47
76713;BMP280;65640;43.154;25.658;2023-06-05T11:27:42;101004.19;;;29.62
76713;BMP280;65640;43.154;25.658;2023-06-05T11:30:15;101006.00;;;29.86
76713;BMP280;65640;43.154;25.658;2023-06-05T11:32:41;101001.38;;;29.83
76713;BMP280;65640;43.154;25.658;2023-06-05T11:35:06;101010.69;;;29.72
76713;BMP280;65640;43.154;25.658;2023-06-05T11:37:34;101003.00;;;29.70
76713;BMP280;65640;43.154;25.658;2023-06-05T11:40:02;101003.47;;;29.55
76713;BMP280;65640;43.154;25.658;2023-06-05T11:42:37;101008.53;;;29.42
76713;BMP280;65640;43.154;25.658;2023-06-05T11:45:13;101003.03;;;29.63
76713;BMP280;65640;43.154;25.658;2023-06-05T11:47:38;101000.44;;;30.08
76713;BMP280;65640;43.154;25.658;2023-06-05T11:50:10;100995.13;;;29.93
76713;BMP280;65640;43.154;25.658;2023-06-05T11:52:37;101001.59;;;29.45
76713;BMP280;65640;43.154;25.658;2023-06-05T11:55:15;101001.59;;;29.41
76713;BMP280;65640;43.154;25.658;2023-06-05T11:57:42;100989.09;;;29.72
76713;BMP280;65640;43.154;25.658;2023-06-05T12:00:09;100997.16;;;29.79
76713;BMP280;65640;43.154;25.658;2023-06-05T12:02:42;100997.38;;;29.36
76713;BMP280;65640;43.154;25.658;2023-06-05T12:05:10;100993.91;;;29.43
76713;BMP280;65640;43.154;25.658;2023-06-05T12:07:37;100996.38;;;28.95
76713;BMP280;65640;43.154;25.658;2023-06-05T12:10:06;100991.78;;;28.85
76713;BMP280;65640;43.154;25.658;2023-06-05T12:12:56;100991.78;;;28.78
76713;BMP280;65640;43.154;25.658;2023-06-05T12:15:21;100992.94;;;28.66
76713;BMP280;65640;43.154;25.658;2023-06-05T12:17:55;100979.81;;;28.97
76713;BMP280;65640;43.154;25.658;2023-06-05T12:20:21;100988.59;;;29.22
76713;BMP280;65640;43.154;25.658;2023-06-05T12:22:47;100985.50;;;29.20
76713;BMP280;65640;43.154;25.658;2023-06-05T12:25:19;100984.78;;;29.05
76713;BMP280;65640;43.154;25.658;2023-06-05T12:27:45;100984.44;;;28.93
76713;BMP280;65640;43.154;25.658;2023-06-05T12:30:11;100977.94;;;28.58
76713;BMP280;65640;43.154;25.658;2023-06-05T12:32:36;100976.81;;;28.52
76713;BMP280;65640;43.154;25.658;2023-06-05T12:35:04;100985.63;;;28.70
76713;BMP280;65640;43.154;25.658;2023-06-05T12:37:30;100980.63;;;28.44
76713;BMP280;65640;43.154;25.658;2023-06-05T12:40:04;100969.84;;;28.23
76713;BMP280;65640;43.154;25.658;2023-06-05T12:42:36;100975.25;;;28.58
76713;BMP280;65640;43.154;25.658;2023-06-05T12:45:03;100977.91;;;28.69
76713;BMP280;65640;43.154;25.658;2023-06-05T12:47:28;100983.28;;;28.87
76713;BMP280;65640;43.154;25.658;2023-06-05T12:49:54;100978.59;;;29.05
76713;BMP280;65640;43.154;25.658;2023-06-05T12:52:20;100975.47;;;29.24
76713;BMP280;65640;43.154;25.658;2023-06-05T12:54:50;100971.25;;;29.23
76713;BMP280;65640;43.154;25.658;2023-06-05T12:57:16;100983.59;;;29.10
76713;BMP280;65640;43.154;25.658;2023-06-05T12:59:46;100980.22;;;28.81
76713;BMP280;65640;43.154;25.658;2023-06-05T13:02:11;100980.59;;;28.80
76713;BMP280;65640;43.154;25.658;2023-06-05T13:04:37;100974.00;;;28.95
76713;BMP280;65640;43.154;25.658;2023-06-05T13:07:03;100971.25;;;29.19
76713;BMP280;65640;43.154;25.658;2023-06-05T13:09:28;100971.66;;;29.14
76713;BMP280;65640;43.154;25.658;2023-06-05T13:11:53;100972.03;;;29.13
76713;BMP280;65640;43.154;25.658;2023-06-05T13:14:19;100970.09;;;29.17
76713;BMP280;65640;43.154;25.658;2023-06-05T13:16:45;100967.09;;;28.94
76713;BMP280;65640;43.154;25.658;2023-06-05T13:19:10;100970.97;;;28.64
76713;BMP280;65640;43.154;25.658;2023-06-05T13:21:35;100959.38;;;28.89
76713;BMP280;65640;43.154;25.658;2023-06-05T13:24:01;100954.75;;;28.93
76713;BMP280;65640;43.154;25.658;2023-06-05T13:26:26;100958.59;;;28.99
76713;BMP280;65640;43.154;25.658;2023-06-05T13:28:52;100964.41;;;28.90
76713;BMP280;65640;43.154;25.658;2023-06-05T13:31:17;100964.72;;;29.13
76713;BMP280;65640;43.154;25.658;2023-06-05T13:33:42;100956.53;;;29.27
76713;BMP280;65640;43.154;25.658;2023-06-05T13:36:08;100964.72;;;29.10
76713;BMP280;65640;43.154;25.658;2023-06-05T13:38:36;100948.78;;;29.40
76713;BMP280;65640;43.154;25.658;2023-06-05T13:41:03;100954.91;;;29.48
76713;BMP280;65640;43.154;25.658;2023-06-05T13:43:28;100939.19;;;29.28
76713;BMP280;65640;43.154;25.658;2023-06-05T13:45:53;100936.41;;;29.50
76713;BMP280;65640;43.154;25.658;2023-06-05T13:48:19;100942.16;;;29.52
76713;BMP280;65640;43.154;25.658;2023-06-05T13:50:44;100940.16;;;29.66
76713;BMP280;65640;43.154;25.658;2023-06-05T13:53:10;100938.72;;;29.48
76713;BMP280;65640;43.154;25.658;2023-06-05T13:55:35;100934.56;;;29.29
76713;BMP280;65640;43.154;25.658;2023-06-05T13:58:01;100929.50;;;29.42
76713;BMP280;65640;43.154;25.658;2023-06-05T14:00:29;100937.63;;;29.38
76713;BMP280;65640;43.154;25.658;2023-06-05T14:02:55;100942.88;;;29.63
76713;BMP280;65640;43.154;25.658;2023-06-05T14:05:20;100934.44;;;29.54
76713;BMP280;65640;43.154;25.658;2023-06-05T14:07:45;100928.25;;;29.57
76713;BMP280;65640;43.154;25.658;2023-06-05T14:10:11;100928.72;;;29.41
76713;BMP280;65640;43.154;25.658;2023-06-05T14:12:36;100926.03;;;29.41